Terminal Aerodrome Forecast
Issued by NWS

Home | Current Version | Previous Version | Text Only | Print | Product List | Glossary On
Versions: 1 2 3 4 5 6 7 8 9 10 11 12 13 14 15 16
072
FTUS41 KLWX 052100 AAA
TAFMTN
TAF AMD
KMTN 052100Z 0521/0618 04005KT P6SM SCT025 OVC035
     FM060100 03006KT 6SM -SHRA OVC025
     FM060300 02005KT 6SM -SHRA OVC020
     FM060400 02005KT 3SM -SHRA OVC020
     FM060700 02006KT 5SM SHRA OVC025
     FM060900 01007KT 5SM SHRA OVC015
     FM061000 01007KT 3SM SHRA OVC015
     FM061600 02008KT 2SM SHRA OVC015=

USA.gov is the U.S. government's official web portal to all federal, state and local government web resources and services.